Time;durP1;ratioP1;P1;durP2;ratioP2;P2;SDS_P1;SDS_P2;PMS_P1;PMS_P2;Temp;Humidity;BMP_temperature;BMP_pressure;BME280_temperature;BME280_humidity;BME280_pressure;Samples;Min_cycle;Max_cycle;Signal;HPM_P1;HPM_P2
2022/04/29 00:02:17;;;;;;;2.30;1.30;;;;;;;15.44;59.66;100258.13;10333488;28;20046;-77
2022/04/29 00:07:18;;;;;;;3.78;1.20;;;;;;;15.94;59.84;100350.56;10334085;28;20038;-77
2022/04/29 00:12:19;;;;;;;8.55;1.00;;;;;;;15.85;60.23;100335.69;10333347;28;20054;-76
2022/04/29 00:17:20;;;;;;;4.45;1.30;;;;;;;15.87;60.42;100343.53;10332202;28;20514;-77
2022/04/29 00:22:21;;;;;;;5.35;1.55;;;;;;;15.69;60.76;100331.53;10332521;28;20052;-79
2022/04/29 00:27:22;;;;;;;5.75;1.30;;;;;;;15.40;61.05;100295.16;10315513;28;20093;-77
2022/04/29 00:32:23;;;;;;;4.25;1.48;;;;;;;14.64;61.44;100208.81;10332110;28;20046;-77
2022/04/29 00:37:24;;;;;;;4.50;1.67;;;;;;;13.11;61.35;99949.63;10331550;28;20518;-77
2022/04/29 00:42:25;;;;;;;5.25;1.42;;;;;;;14.18;61.67;100138.03;10331930;28;20054;-77
2022/04/29 00:47:25;;;;;;;7.55;1.63;;;;;;;14.55;61.62;100182.25;10332711;28;20065;-77
2022/04/29 00:52:30;;;;;;;4.45;1.27;;;;;;;15.10;62.11;100270.53;10331087;28;20101;-77
2022/04/29 00:57:45;;;;;;;2.85;1.40;;;;;;;15.15;62.77;100283.34;10331177;28;20081;-77
2022/04/29 01:02:50;;;;;;;4.65;1.40;;;;;;;15.55;62.74;100366.47;10331585;28;20050;-78
2022/04/29 01:08:10;;;;;;;4.15;1.38;;;;;;;14.90;62.86;100273.13;10331235;28;20119;-77
2022/04/29 01:13:11;;;;;;;6.03;1.67;;;;;;;15.16;63.22;100342.00;10330949;28;20092;-78
2022/04/29 01:18:14;;;;;;;5.30;1.40;;;;;;;14.73;63.59;100272.63;10330814;28;20057;-79
2022/04/29 01:23:15;;;;;;;3.13;1.20;;;;;;;15.21;63.43;100370.84;10331524;28;20042;-77
2022/04/29 01:28:15;;;;;;;5.88;1.52;;;;;;;15.15;63.60;100374.31;10337038;28;20090;-76
2022/04/29 01:33:18;;;;;;;6.43;1.23;;;;;;;15.22;63.94;100383.19;10338725;28;20197;-78
2022/04/29 01:38:18;;;;;;;7.85;1.17;;;;;;;14.27;63.80;100245.53;10338760;28;20066;-77
2022/04/29 01:43:19;;;;;;;7.25;1.40;;;;;;;14.02;64.36;100211.25;10338940;28;20042;-77
2022/04/29 01:48:21;;;;;;;3.45;1.20;;;;;;;14.81;64.42;100351.88;10337820;28;20084;-78
2022/04/29 01:53:22;;;;;;;5.00;1.05;;;;;;;14.89;64.62;100370.44;10362804;28;20046;-80
2022/04/29 01:58:23;;;;;;;2.95;1.33;;;;;;;14.60;64.66;100348.25;10378036;28;20034;-78
2022/04/29 02:03:24;;;;;;;6.68;1.40;;;;;;;14.66;64.33;100373.38;10378506;28;20045;-77
2022/04/29 02:08:25;;;;;;;2.47;1.20;;;;;;;13.55;64.67;100202.03;10377711;28;20069;-77
2022/04/29 02:13:25;;;;;;;2.95;1.15;;;;;;;14.12;64.68;100291.91;10356271;28;20042;-78
2022/04/29 02:18:26;;;;;;;4.43;1.30;;;;;;;13.87;64.88;100262.06;10337873;28;20074;-78
2022/04/29 02:23:27;;;;;;;8.18;1.20;;;;;;;14.35;64.72;100323.72;10336916;28;20042;-77
2022/04/29 02:28:28;;;;;;;4.50;1.38;;;;;;;15.05;64.82;100447.72;10338055;28;20071;-77
2022/04/29 02:33:29;;;;;;;3.45;1.05;;;;;;;13.75;64.85;100244.91;10337119;28;20136;-77
2022/04/29 02:38:30;;;;;;;4.25;1.58;;;;;;;14.91;65.23;100439.78;10336423;28;20116;-77
2022/04/29 02:43:34;;;;;;;3.65;1.55;;;;;;;14.26;65.57;100356.94;10336539;28;20035;-77
2022/04/29 02:48:35;;;;;;;5.25;1.85;;;;;;;14.70;65.15;100427.28;10336517;28;20039;-76
2022/04/29 02:53:36;;;;;;;7.00;2.00;;;;;;;14.75;65.54;100438.25;10335306;28;20038;-77
2022/04/29 02:58:37;;;;;;;6.43;1.75;;;;;;;14.81;65.31;100437.47;10347444;28;20041;-76
2022/04/29 03:03:38;;;;;;;6.38;1.90;;;;;;;13.67;65.17;100261.06;10375468;28;20095;-79
2022/04/29 03:08:38;;;;;;;9.02;2.20;;;;;;;14.89;65.09;100458.69;10375106;28;20045;-78
2022/04/29 03:13:39;;;;;;;6.03;2.00;;;;;;;13.70;65.06;100269.53;10375200;28;20080;-79
2022/04/29 03:18:40;;;;;;;6.55;2.30;;;;;;;15.11;64.91;100472.06;10375333;28;20044;-77
2022/04/29 03:23:41;;;;;;;10.38;2.13;;;;;;;13.90;64.12;100260.88;10357736;28;20115;-77
2022/04/29 03:28:42;;;;;;;3.08;1.80;;;;;;;15.01;64.27;100422.38;10374919;28;20053;-78
2022/04/29 03:33:43;;;;;;;3.63;1.98;;;;;;;13.39;63.82;100155.06;10374343;28;20037;-77
2022/04/29 03:38:43;;;;;;;3.38;1.90;;;;;;;15.31;63.14;100456.94;10374712;28;20129;-77
2022/04/29 03:43:44;;;;;;;6.90;2.33;;;;;;;14.44;62.80;100284.31;10374530;28;20517;-78
2022/04/29 03:54:04;;;;;;;5.13;2.00;;;;;;;16.72;60.60;100507.41;10374871;28;20056;-77
2022/04/29 03:59:05;;;;;;;8.27;1.92;;;;;;;16.68;59.25;100405.06;10374466;28;20049;-77
2022/04/29 04:04:06;;;;;;;7.97;1.63;;;;;;;16.73;58.78;100413.31;10374930;28;20497;-80
2022/04/29 04:09:07;;;;;;;9.65;2.03;;;;;;;16.49;58.02;100333.50;10373461;28;20140;-78
2022/04/29 04:14:09;;;;;;;3.65;1.70;;;;;;;17.61;58.55;100527.66;10370924;28;20064;-72
2022/04/29 04:19:10;;;;;;;5.05;1.73;;;;;;;17.08;58.02;100426.53;10413839;28;20041;-78
2022/04/29 04:24:11;;;;;;;7.85;2.15;;;;;;;17.63;57.85;100510.31;10396735;28;20479;-72
2022/04/29 04:29:12;;;;;;;8.68;1.70;;;;;;;18.08;56.99;100478.13;10413923;28;20512;-75
2022/04/29 04:39:32;;;;;;;3.70;1.70;;;;;;;18.70;54.13;100483.78;10412941;28;20049;-73
2022/04/29 04:44:33;;;;;;;3.33;1.80;;;;;;;19.37;53.95;100543.31;10369063;28;20043;-71
2022/04/29 04:49:35;;;;;;;14.18;1.80;;;;;;;19.18;52.13;100437.44;10371040;28;20136;-81
2022/04/29 04:54:36;;;;;;;11.70;2.20;;;;;;;19.26;52.68;100552.13;10371660;28;20053;-81
2022/04/29 04:59:37;;;;;;;9.93;2.10;;;;;;;18.32;55.34;100541.09;10354819;28;20092;-77
2022/04/29 05:04:38;;;;;;;7.13;2.00;;;;;;;17.15;56.24;100427.34;10378962;28;20049;-77
2022/04/29 05:09:39;;;;;;;3.70;1.63;;;;;;;16.69;57.00;100389.78;10380551;28;20054;-77
2022/04/29 05:14:40;;;;;;;5.13;2.10;;;;;;;17.76;56.92;100537.13;10380685;28;20128;-78
2022/04/29 05:19:41;;;;;;;5.68;1.70;;;;;;;17.88;57.27;100549.94;10380027;28;20052;-78
2022/04/29 05:24:42;;;;;;;7.07;1.90;;;;;;;17.67;57.25;100508.84;10380618;28;20455;-79
2022/04/29 05:29:42;;;;;;;6.00;2.05;;;;;;;16.97;57.50;100411.09;10379153;28;20042;-80
2022/04/29 05:34:44;;;;;;;6.13;1.90;;;;;;;17.36;58.01;100495.28;10379317;28;20034;-80
2022/04/29 05:45:05;;;;;;;5.38;1.80;;;;;;;17.68;57.80;100542.75;10378622;28;20126;-79
2022/04/29 05:50:07;;;;;;;6.40;1.90;;;;;;;17.67;57.55;100524.13;10379163;28;20533;-78
2022/04/29 05:55:08;;;;;;;5.25;2.10;;;;;;;17.54;56.80;100436.34;10378203;28;20042;-79
2022/04/29 06:00:09;;;;;;;5.13;1.75;;;;;;;18.32;56.46;100542.97;10378182;28;20073;-79
2022/04/29 06:05:10;;;;;;;2.42;1.63;;;;;;;17.76;56.70;100448.47;10377702;28;20046;-79
2022/04/29 06:10:11;;;;;;;9.98;2.00;;;;;;;18.47;56.65;100570.41;10378439;28;20054;-78
2022/04/29 06:15:16;;;;;;;4.28;1.60;;;;;;;18.78;56.79;100593.06;10377179;28;20049;-78
2022/04/29 06:20:17;;;;;;;23.88;11.60;;;;;;;19.13;55.46;100551.19;10377997;28;20140;-79
2022/04/29 06:25:20;;;;;;;18.48;7.15;;;;;;;18.90;54.17;100424.44;10377911;28;20233;-80
2022/04/29 06:30:21;;;;;;;8.43;2.70;;;;;;;19.51;53.67;100501.75;10378050;28;20091;-79
2022/04/29 06:35:22;;;;;;;9.57;3.75;;;;;;;18.93;53.46;100419.44;10377137;28;20556;-77
2022/04/29 06:40:23;;;;;;;13.35;5.18;;;;;;;20.08;53.47;100581.63;10377655;28;20120;-80
2022/04/29 06:45:24;;;;;;;19.30;5.45;;;;;;;19.55;53.51;100473.31;10377047;28;20579;-77
2022/04/29 06:50:25;;;;;;;22.95;9.65;;;;;;;19.92;53.32;100554.19;10376599;28;20103;-77
2022/04/29 06:55:26;;;;;;;12.05;6.45;;;;;;;19.84;54.10;100549.94;10376582;28;20045;-79
2022/04/29 07:00:27;;;;;;;9.75;3.08;;;;;;;19.86;53.96;100571.28;10376594;28;20041;-80
2022/04/29 07:05:30;;;;;;;16.27;7.20;;;;;;;18.83;53.98;100402.97;10376191;28;20045;-79
2022/04/29 07:10:31;;;;;;;8.23;2.83;;;;;;;19.05;53.93;100443.75;10376475;28;20143;-80
2022/04/29 07:15:32;;;;;;;8.98;1.77;;;;;;;20.01;54.06;100579.84;10375742;28;20042;-80
2022/04/29 07:20:33;;;;;;;18.70;4.50;;;;;;;20.10;53.62;100566.03;10375036;28;20041;-79
2022/04/29 07:25:33;;;;;;;26.25;14.18;;;;;;;20.54;52.95;100569.47;10374007;28;20115;-78
2022/04/29 07:30:35;;;;;;;12.05;3.10;;;;;;;20.21;52.59;100495.97;10375882;28;20038;-79
2022/04/29 07:46:14;;;;;;;11.43;3.03;;;;;;;21.26;50.49;100504.59;10374310;28;20072;-79
2022/04/29 07:51:15;;;;;;;6.65;2.67;;;;;;;20.73;49.85;100404.53;10373778;28;20044;-82
2022/04/29 07:56:15;;;;;;;9.13;1.73;;;;;;;20.89;50.38;100475.91;10374164;28;20045;-78
2022/04/29 08:01:16;;;;;;;8.27;2.50;;;;;;;20.45;50.40;100394.34;10373546;28;20038;-81
2022/04/29 08:06:17;;;;;;;10.52;6.72;;;;;;;20.46;50.51;100392.47;10374798;28;20042;-80
2022/04/29 08:11:18;;;;;;;5.20;2.00;;;;;;;21.62;50.22;100538.69;10373251;28;20541;-77
2022/04/29 08:16:19;;;;;;;9.95;2.55;;;;;;;21.45;49.97;100516.97;10374119;28;20046;-76
2022/04/29 08:21:22;;;;;;;15.38;5.40;;;;;;;21.56;49.93;100529.63;10372660;28;20058;-78
2022/04/29 08:26:22;;;;;;;15.02;8.45;;;;;;;20.65;49.93;100383.28;10373437;28;20042;-78
2022/04/29 08:31:23;;;;;;;10.85;2.83;;;;;;;20.37;49.06;100288.66;10372428;28;20080;-79
2022/04/29 08:36:24;;;;;;;20.98;10.25;;;;;;;22.15;48.91;100520.63;10372892;28;20030;-77
2022/04/29 08:41:25;;;;;;;15.10;3.45;;;;;;;21.47;48.21;100347.28;10372022;28;20073;-79
2022/04/29 08:46:26;;;;;;;12.05;3.38;;;;;;;22.50;47.53;100426.59;10372769;28;20408;-80
2022/04/29 08:51:26;;;;;;;14.10;3.25;;;;;;;22.81;47.63;100502.09;10373088;28;20049;-77
2022/04/29 09:01:47;;;;;;;14.27;2.45;;;;;;;22.20;46.83;100351.09;10372305;28;20038;-78
2022/04/29 09:07:06;;;;;;;18.20;2.22;;;;;;;21.97;46.09;100343.91;10372254;28;20045;-79
2022/04/29 09:12:15;;;;;;;13.77;2.88;;;;;;;22.48;45.76;100457.66;10372539;28;20487;-80
2022/04/29 09:17:29;;;;;;;13.65;2.10;;;;;;;22.44;46.93;100434.88;10372641;28;20049;-80
2022/04/29 09:22:32;;;;;;;16.92;2.53;;;;;;;22.38;44.73;100409.59;10372098;28;20045;-79
2022/04/29 09:27:53;;;;;;;17.27;2.30;;;;;;;22.42;46.29;100383.66;10371807;28;20140;-79
2022/04/29 09:32:54;;;;;;;18.17;2.88;;;;;;;22.67;45.44;100442.81;10371860;28;20046;-81
2022/04/29 09:43:16;;;;;;;14.13;2.50;;;;;;;22.61;45.63;100429.44;10340402;28;20053;-79
2022/04/29 09:48:17;;;;;;;15.43;2.15;;;;;;;22.08;45.64;100324.09;10375028;28;20038;-79
2022/04/29 09:53:23;;;;;;;9.65;1.95;;;;;;;22.17;45.46;100354.31;10378401;28;20382;-78
2022/04/29 09:58:24;;;;;;;14.00;2.65;;;;;;;22.63;45.40;100362.34;10378928;28;20045;-80
2022/04/29 10:03:26;;;;;;;9.05;2.10;;;;;;;22.69;45.20;100362.16;10379030;28;20078;-77
2022/04/29 10:08:30;;;;;;;15.35;3.42;;;;;;;22.70;44.81;100311.53;10378611;28;20081;-78
2022/04/29 10:13:33;;;;;;;19.90;3.42;;;;;;;23.31;44.09;100401.00;10378795;28;20042;-77
2022/04/29 10:24:00;;;;;;;19.05;3.88;;;;;;;22.64;44.71;100369.38;10377732;28;20402;-79
2022/04/29 10:29:02;;;;;;;13.35;2.90;;;;;;;22.12;45.08;100316.28;10377527;28;20046;-78
2022/04/29 10:34:29;;;;;;;25.43;3.20;;;;;;;22.71;44.66;100421.50;10378012;28;20064;-82
2022/04/29 10:39:30;;;;;;;17.38;2.90;;;;;;;22.08;44.97;100334.09;10377035;28;20042;-80
2022/04/29 10:44:31;;;;;;;17.02;3.17;;;;;;;22.71;45.20;100422.31;10376624;28;20497;-78
2022/04/29 10:49:32;;;;;;;13.57;2.50;;;;;;;21.90;45.15;100270.22;10377688;28;20482;-78
2022/04/29 10:54:41;;;;;;;18.40;3.80;;;;;;;22.84;45.06;100406.81;10376545;28;20073;-77
2022/04/29 10:59:52;;;;;;;20.92;3.65;;;;;;;22.06;45.26;100268.59;10374589;28;20045;-77
2022/04/29 11:04:54;;;;;;;9.48;2.45;;;;;;;23.09;45.13;100396.34;10376332;28;20628;-81
2022/04/29 11:09:55;;;;;;;23.08;3.17;;;;;;;22.13;44.34;100203.50;10376148;28;20137;-77
2022/04/29 11:15:21;;;;;;;18.98;3.13;;;;;;;22.76;44.67;100276.19;10375945;28;20142;-77
2022/04/29 11:20:24;;;;;;;14.82;3.13;;;;;;;23.77;43.76;100382.59;10375833;28;20506;-78
2022/04/29 11:25:25;;;;;;;13.87;3.20;;;;;;;23.56;43.72;100325.41;10374982;28;20464;-78
2022/04/29 11:30:26;;;;;;;20.15;2.90;;;;;;;23.04;43.65;100250.00;10375122;28;20041;-77
2022/04/29 11:35:27;;;;;;;18.63;3.00;;;;;;;23.56;43.42;100341.66;10374477;28;20038;-78
2022/04/29 11:40:29;;;;;;;13.43;2.70;;;;;;;23.65;43.88;100378.09;10374731;28;20053;-78
2022/04/29 11:45:30;;;;;;;17.35;2.80;;;;;;;23.28;44.33;100328.34;10374038;28;20077;-78
2022/04/29 11:50:32;;;;;;;13.05;2.83;;;;;;;23.45;43.33;100367.84;10374862;28;20513;-78
2022/04/29 11:55:33;;;;;;;13.38;2.70;;;;;;;23.25;43.92;100345.91;10373732;28;20054;-77
2022/04/29 12:00:35;;;;;;;19.13;3.33;;;;;;;23.52;44.12;100383.94;10373567;28;20142;-77
2022/04/29 12:05:36;;;;;;;18.90;2.97;;;;;;;23.43;44.09;100388.97;10363188;28;20049;-73
2022/04/29 12:10:36;;;;;;;13.93;2.90;;;;;;;22.86;43.82;100299.88;10363443;28;20054;-72
2022/04/29 12:15:41;;;;;;;20.55;2.72;;;;;;;23.26;43.72;100379.25;10360538;28;20046;-72
2022/04/29 12:20:44;;;;;;;24.00;3.40;;;;;;;23.20;43.90;100386.50;10333067;28;20604;-72
2022/04/29 12:25:47;;;;;;;10.38;2.92;;;;;;;23.13;43.57;100377.75;10342779;28;20065;-72
2022/04/29 12:36:47;;;;;;;13.80;2.65;;;;;;;23.15;44.76;100376.38;10331854;28;20042;-72
2022/04/29 12:42:06;;;;;;;20.13;2.75;;;;;;;23.36;44.91;100403.78;10332000;28;20485;-73
2022/04/29 12:47:25;;;;;;;12.43;2.75;;;;;;;21.79;43.62;100144.84;10331558;28;20042;-72
2022/04/29 12:52:26;;;;;;;18.08;3.08;;;;;;;22.63;43.96;100284.63;10329319;28;20049;-73
2022/04/29 12:57:32;;;;;;;18.13;2.72;;;;;;;22.76;43.79;100318.66;10333926;28;20038;-72
2022/04/29 13:02:33;;;;;;;14.93;3.10;;;;;;;22.12;43.38;100202.66;10342544;28;20426;-73
2022/04/29 13:07:34;;;;;;;18.13;3.05;;;;;;;22.74;43.60;100286.44;10331063;28;20043;-73
2022/04/29 13:12:34;;;;;;;23.27;3.33;;;;;;;22.63;43.38;100279.22;10368742;28;20107;-72
2022/04/29 13:17:35;;;;;;;20.70;2.85;;;;;;;23.31;43.81;100391.00;10371476;28;20042;-72
2022/04/29 13:22:37;;;;;;;9.63;2.20;;;;;;;23.43;43.99;100436.94;10372908;28;20056;-74
2022/04/29 13:27:38;;;;;;;15.50;2.97;;;;;;;23.10;44.34;100389.88;10379365;28;20046;-75
2022/04/29 13:32:39;;;;;;;14.95;3.65;;;;;;;22.90;44.05;100384.16;10380380;28;20128;-72
2022/04/29 13:37:40;;;;;;;17.40;3.30;;;;;;;22.29;44.54;100300.94;10380003;28;20038;-72
2022/04/29 13:42:41;;;;;;;11.35;2.40;;;;;;;22.83;44.55;100386.22;10360694;28;20184;-72
2022/04/29 13:47:42;;;;;;;10.05;2.83;;;;;;;22.96;44.33;100418.41;10372392;28;20536;-73
2022/04/29 13:58:03;;;;;;;39.80;4.97;;;;;;;22.65;45.11;100368.34;10371076;28;20099;-74
2022/04/29 14:03:04;;;;;;;13.07;3.22;;;;;;;22.78;45.15;100389.66;10369042;28;20104;-75
2022/04/29 14:08:06;;;;;;;21.67;3.60;;;;;;;22.79;45.17;100396.69;10371928;28;20080;-76
2022/04/29 14:13:10;;;;;;;24.48;3.95;;;;;;;21.97;45.43;100275.47;10359884;28;20048;-75
2022/04/29 14:18:11;;;;;;;23.08;5.90;;;;;;;22.42;45.72;100345.78;10377474;28;20046;-74
2022/04/29 14:23:12;;;;;;;20.25;4.60;;;;;;;22.46;46.29;100371.28;10378066;28;20132;-73
2022/04/29 14:28:14;;;;;;;28.05;6.05;;;;;;;22.49;47.15;100397.84;10376437;28;20042;-73
2022/04/29 14:33:14;;;;;;;43.13;12.00;;;;;;;22.06;48.44;100334.31;10377583;28;20041;-73
2022/04/29 14:38:18;;;;;;;29.80;7.38;;;;;;;22.40;49.19;100404.75;10377107;28;20065;-74
2022/04/29 14:43:19;;;;;;;;;;;;;;;22.50;48.37;100404.94;10375866;28;20054;-72
2022/04/29 14:48:19;;;;;;;17.17;3.47;;;;;;;21.32;49.26;100260.47;10371660;28;20289;-74
2022/04/29 14:53:20;;;;;;;14.30;3.47;;;;;;;21.73;49.98;100336.97;10376647;28;20049;-72
2022/04/29 14:58:21;;;;;;;18.67;4.18;;;;;;;21.15;50.03;100263.94;10376083;28;20045;-73
2022/04/29 15:03:22;;;;;;;32.13;14.85;;;;;;;21.99;50.20;100408.59;10375921;28;20382;-73
2022/04/29 15:08:23;;;;;;;36.17;12.40;;;;;;;21.94;50.24;100405.78;10376804;28;20112;-73
2022/04/29 15:18:44;;;;;;;70.25;26.95;;;;;;;21.33;50.59;100340.47;10369466;28;20513;-73
2022/04/29 15:23:44;;;;;;;28.25;5.25;;;;;;;21.64;50.52;100433.84;10336345;28;20049;-73
2022/04/29 15:28:45;;;;;;;11.63;2.47;;;;;;;21.12;48.80;100431.06;10335399;28;20046;-73
2022/04/29 15:33:46;;;;;;;20.17;5.35;;;;;;;20.12;48.75;100340.09;10334244;28;20050;-77
2022/04/29 15:38:47;;;;;;;48.65;22.13;;;;;;;20.47;48.70;100459.72;10334547;28;20497;-73
2022/04/29 15:43:48;;;;;;;16.60;6.72;;;;;;;20.08;48.55;100430.63;10333099;28;20109;-72
2022/04/29 15:48:49;;;;;;;15.00;3.22;;;;;;;20.11;48.49;100473.31;10333793;28;20038;-75
2022/04/29 15:53:50;;;;;;;22.17;5.55;;;;;;;19.25;48.72;100361.97;10333239;28;20132;-73
2022/04/29 15:58:50;;;;;;;12.77;3.45;;;;;;;19.71;48.65;100452.22;10366960;28;20107;-73
2022/04/29 16:03:52;;;;;;;10.43;2.65;;;;;;;18.88;48.46;100337.72;10368123;28;20048;-78
2022/04/29 16:08:53;;;;;;;10.20;4.00;;;;;;;19.50;48.55;100472.31;10358487;28;20482;-79
2022/04/29 16:13:54;;;;;;;17.38;3.60;;;;;;;19.47;48.54;100495.13;10364002;28;20072;-77
2022/04/29 16:29:37;;;;;;;10.10;3.60;;;;;;;18.98;48.79;100450.25;10374014;28;20050;-76
2022/04/29 16:34:38;;;;;;;14.55;3.20;;;;;;;18.41;48.74;100383.00;10373620;28;20042;-79
2022/04/29 16:39:39;;;;;;;19.13;3.55;;;;;;;19.04;48.59;100490.56;10372630;28;20049;-79
2022/04/29 16:44:40;;;;;;;12.98;2.55;;;;;;;18.08;48.67;100361.72;10372136;28;20084;-76
2022/04/29 16:49:40;;;;;;;8.48;2.60;;;;;;;18.98;48.69;100518.38;10373216;28;20498;-79
2022/04/29 16:54:42;;;;;;;11.52;2.75;;;;;;;18.77;48.72;100507.97;10355450;28;20042;-76
2022/04/29 16:59:44;;;;;;;10.20;2.83;;;;;;;18.79;48.77;100524.75;10331539;28;20038;-77
2022/04/29 17:04:45;;;;;;;10.57;4.15;;;;;;;18.76;48.87;100533.25;10330622;28;20058;-82
2022/04/29 17:09:46;;;;;;;10.68;2.10;;;;;;;17.28;48.21;100316.41;10331272;28;20064;-76
2022/04/29 17:14:46;;;;;;;7.53;1.80;;;;;;;17.95;48.61;100444.09;10364254;28;20035;-79
2022/04/29 17:19:48;;;;;;;12.25;1.98;;;;;;;18.53;48.82;100548.03;10369624;28;20038;-77
2022/04/29 17:24:49;;;;;;;14.68;1.77;;;;;;;17.31;48.84;100378.56;10359754;28;20112;-79
2022/04/29 17:29:52;;;;;;;12.68;3.10;;;;;;;17.19;49.20;100366.84;10351557;28;20128;-79
2022/04/29 17:34:53;;;;;;;12.98;2.72;;;;;;;16.32;49.36;100277.59;10372220;28;20042;-79
2022/04/29 17:45:14;;;;;;;8.73;2.55;;;;;;;17.45;49.54;100438.44;10368689;28;20046;-79
2022/04/29 17:50:21;;;;;;;8.35;1.83;;;;;;;18.02;49.47;100559.63;10371942;28;20379;-78
2022/04/29 17:55:26;;;;;;;6.40;1.65;;;;;;;17.86;49.35;100533.19;10371368;28;20137;-78
2022/04/29 18:00:28;;;;;;;4.28;1.60;;;;;;;17.76;50.07;100526.38;10369499;28;20095;-79
2022/04/29 18:05:30;;;;;;;3.95;1.73;;;;;;;16.69;50.05;100368.34;10368057;28;20108;-79
2022/04/29 18:10:32;;;;;;;6.82;2.10;;;;;;;17.44;50.21;100495.03;10377076;28;20057;-77
2022/04/29 18:15:33;;;;;;;7.70;2.28;;;;;;;15.92;50.03;100269.56;10374291;28;20042;-77
2022/04/29 18:20:37;;;;;;;7.65;1.70;;;;;;;16.35;50.05;100336.16;10374744;28;20087;-77
2022/04/29 18:25:39;;;;;;;6.63;1.60;;;;;;;17.72;50.11;100562.78;10375664;28;20579;-79
2022/04/29 18:30:40;;;;;;;9.50;1.48;;;;;;;16.97;50.20;100456.69;10371277;28;20048;-77
2022/04/29 18:35:41;;;;;;;8.43;1.45;;;;;;;17.29;50.29;100504.16;10345462;28;20092;-77
2022/04/29 18:40:43;;;;;;;5.53;1.70;;;;;;;17.68;50.51;100550.81;10348753;28;20084;-76
2022/04/29 18:45:44;;;;;;;5.65;2.00;;;;;;;17.07;50.64;100465.97;10377630;28;20056;-76
2022/04/29 18:50:45;;;;;;;7.13;1.88;;;;;;;17.23;50.93;100512.19;10377064;28;20494;-77
2022/04/29 18:55:46;;;;;;;3.40;1.70;;;;;;;17.07;51.16;100510.78;10376605;28;20033;-76
2022/04/29 19:00:47;;;;;;;2.97;1.30;;;;;;;16.40;51.25;100397.22;10376808;28;20050;-76
2022/04/29 19:05:49;;;;;;;7.90;1.85;;;;;;;14.91;51.27;100173.16;10375897;28;20034;-77
2022/04/29 19:10:50;;;;;;;6.80;1.85;;;;;;;16.87;51.69;100516.97;10358473;28;20517;-77
2022/04/29 19:15:50;;;;;;;3.50;1.65;;;;;;;16.66;51.80;100488.44;10375883;28;20038;-77
2022/04/29 19:20:51;;;;;;;6.40;1.48;;;;;;;15.70;52.03;100332.34;10375575;28;20045;-76
2022/04/29 19:25:52;;;;;;;6.63;1.50;;;;;;;15.96;52.66;100399.41;10375827;28;20038;-76
2022/04/29 19:30:54;;;;;;;5.82;1.35;;;;;;;14.60;53.43;100209.22;10370530;28;20048;-76
2022/04/29 19:35:54;;;;;;;4.10;1.23;;;;;;;16.62;53.27;100523.91;10358257;28;20103;-78
2022/04/29 19:40:55;;;;;;;7.43;1.65;;;;;;;15.54;53.44;100352.25;10373902;28;20096;-76
2022/04/29 19:45:56;;;;;;;5.32;1.40;;;;;;;16.57;53.50;100507.59;10372705;28;20125;-78
2022/04/29 19:50:57;;;;;;;5.10;1.33;;;;;;;16.56;53.77;100509.44;10374648;28;20037;-77
2022/04/29 19:55:58;;;;;;;5.80;2.20;;;;;;;16.34;53.56;100479.28;10373752;28;20042;-77
2022/04/29 20:00:59;;;;;;;9.60;2.78;;;;;;;15.16;53.76;100312.56;10374938;28;20045;-77
2022/04/29 20:06:00;;;;;;;7.43;3.83;;;;;;;15.69;54.03;100403.00;10374333;28;20053;-76
2022/04/29 20:11:01;;;;;;;5.05;1.60;;;;;;;14.36;54.13;100204.31;10370130;28;20069;-76
2022/04/29 20:16:03;;;;;;;7.22;2.90;;;;;;;14.83;54.57;100285.63;10351675;28;20065;-77
2022/04/29 20:21:04;;;;;;;8.68;3.20;;;;;;;14.96;54.58;100315.16;10333357;28;20050;-76
2022/04/29 20:26:04;;;;;;;6.97;1.73;;;;;;;15.06;54.95;100318.28;10331999;28;20057;-77
2022/04/29 20:31:06;;;;;;;7.13;1.88;;;;;;;16.09;55.11;100487.03;10371402;28;20041;-77
2022/04/29 20:36:06;;;;;;;12.95;2.40;;;;;;;15.26;55.05;100358.53;10372691;28;20486;-77
2022/04/29 20:46:35;;;;;;;5.63;1.85;;;;;;;16.19;55.77;100497.41;10372737;28;20044;-77
2022/04/29 20:51:36;;;;;;;9.30;1.80;;;;;;;14.85;55.10;100280.91;10372615;28;20089;-76
2022/04/29 20:56:37;;;;;;;3.72;1.50;;;;;;;14.05;55.46;100167.31;10372565;28;20096;-77
2022/04/29 21:01:40;;;;;;;3.03;1.25;;;;;;;14.44;55.98;100232.72;10371521;28;20115;-77
2022/04/29 21:06:42;;;;;;;2.70;1.10;;;;;;;16.01;56.29;100483.72;10372856;28;20049;-76
2022/04/29 21:11:45;;;;;;;6.68;1.38;;;;;;;15.17;56.75;100381.13;10371453;28;20085;-76
2022/04/29 21:16:46;;;;;;;3.70;1.30;;;;;;;15.29;57.20;100432.25;10372964;28;20530;-76
2022/04/29 21:21:47;;;;;;;8.18;1.38;;;;;;;14.79;57.22;100353.91;10371762;28;20073;-77
2022/04/29 21:26:47;;;;;;;4.93;0.98;;;;;;;12.86;57.75;100042.50;10370070;28;20564;-77
2022/04/29 21:31:48;;;;;;;5.43;1.30;;;;;;;14.10;57.70;100229.00;10371673;28;20108;-77
2022/04/29 21:36:49;;;;;;;6.25;1.20;;;;;;;15.56;57.90;100480.59;10371625;28;20042;-76
2022/04/29 21:41:50;;;;;;;7.72;1.50;;;;;;;15.21;58.09;100432.38;10371758;28;20493;-77
2022/04/29 21:46:52;;;;;;;9.65;2.10;;;;;;;14.81;58.35;100376.78;10378749;28;20052;-76
2022/04/29 21:51:54;;;;;;;6.38;1.42;;;;;;;14.50;58.29;100330.84;10378424;28;20041;-77
2022/04/29 21:56:55;;;;;;;5.00;1.70;;;;;;;15.25;58.67;100453.19;10379626;28;20486;-77
2022/04/29 22:01:56;;;;;;;8.93;1.88;;;;;;;15.18;58.76;100435.47;10379303;28;20046;-77
2022/04/29 22:06:57;;;;;;;4.72;1.90;;;;;;;14.87;59.41;100438.50;10378546;28;20132;-78
2022/04/29 22:11:58;;;;;;;9.40;2.20;;;;;;;14.15;59.54;100310.22;10378938;28;20050;-77
2022/04/29 22:16:59;;;;;;;4.43;1.48;;;;;;;13.93;59.92;100277.34;10376360;28;20045;-78
2022/04/29 22:21:59;;;;;;;5.00;2.25;;;;;;;14.49;60.00;100359.41;10378439;28;20050;-78
2022/04/29 22:27:00;;;;;;;9.85;3.20;;;;;;;14.54;60.28;100370.41;10377784;28;20038;-78
2022/04/29 22:32:01;;;;;;;8.32;2.95;;;;;;;14.56;60.51;100386.22;10377150;28;20553;-78
2022/04/29 22:37:02;;;;;;;4.72;1.83;;;;;;;12.97;60.91;100155.84;10377521;28;20123;-78
2022/04/29 22:42:03;;;;;;;5.53;1.63;;;;;;;12.78;61.49;100155.44;10376802;28;20054;-78
2022/04/29 22:47:05;;;;;;;3.75;1.52;;;;;;;13.48;61.72;100289.19;10376375;28;20425;-77
2022/04/29 22:52:07;;;;;;;8.43;2.17;;;;;;;13.53;62.03;100312.66;10376279;28;20497;-77
2022/04/29 22:57:08;;;;;;;10.55;2.65;;;;;;;12.54;61.71;100147.75;10358865;28;20038;-78
2022/04/29 23:02:09;;;;;;;4.75;1.55;;;;;;;13.47;62.23;100277.69;10375880;28;20048;-78
2022/04/29 23:07:09;;;;;;;8.63;2.22;;;;;;;13.61;62.16;100318.72;10375953;28;20057;-78
2022/04/29 23:12:11;;;;;;;6.60;2.15;;;;;;;13.75;63.10;100338.34;10375959;28;20506;-78
2022/04/29 23:22:31;;;;;;;8.18;1.92;;;;;;;13.86;62.75;100366.41;10375670;28;20494;-78
2022/04/29 23:27:32;;;;;;;4.00;1.48;;;;;;;12.63;63.14;100188.44;10374953;28;20128;-78
2022/04/29 23:32:33;;;;;;;5.47;1.52;;;;;;;12.94;64.01;100289.53;10375959;28;20038;-78
2022/04/29 23:37:36;;;;;;;5.90;1.60;;;;;;;12.93;64.77;100312.69;10375674;28;20054;-78
2022/04/29 23:42:37;;;;;;;6.13;1.50;;;;;;;13.46;64.82;100403.28;10374308;28;20053;-78
2022/04/29 23:47:40;;;;;;;4.40;1.58;;;;;;;13.10;65.59;100377.34;10375423;28;20038;-78
2022/04/29 23:52:41;;;;;;;12.17;1.40;;;;;;;12.40;65.60;100279.13;10374730;28;20049;-78
2022/04/29 23:57:43;;;;;;;2.40;1.30;;;;;;;12.70;66.52;100367.94;10374781;28;20041;-77
